createdAt,value
2022-09-06T00:00:54.819Z,99710.00
2022-09-06T00:03:21.853Z,99709.72
2022-09-06T00:05:48.846Z,99684.38
2022-09-06T00:08:15.594Z,99700.22
2022-09-06T00:10:42.588Z,99703.19
2022-09-06T00:13:13.307Z,99695.03
2022-09-06T00:15:39.970Z,99691.50
2022-09-06T00:18:09.327Z,99680.97
2022-09-06T00:20:38.318Z,99695.72
2022-09-06T00:23:05.920Z,99702.91
2022-09-06T00:25:34.757Z,99704.84
2022-09-06T00:28:03.341Z,99713.19
2022-09-06T00:30:31.840Z,99719.22
2022-09-06T00:32:58.565Z,99742.16
2022-09-06T00:35:27.869Z,99783.50
2022-09-06T00:37:57.428Z,99765.16
2022-09-06T00:40:27.618Z,99802.13
2022-09-06T00:42:54.511Z,99811.00
2022-09-06T00:45:22.047Z,99806.59
2022-09-06T00:47:50.100Z,99802.66
2022-09-06T00:50:18.962Z,99807.38
2022-09-06T00:52:51.689Z,99803.72
2022-09-06T00:55:19.623Z,99810.84
2022-09-06T00:57:46.911Z,99805.44
2022-09-06T01:00:14.846Z,99808.69
2022-09-06T01:02:42.332Z,99815.22
2022-09-06T01:05:10.406Z,99829.84
2022-09-06T01:07:51.436Z,99838.09
2022-09-06T01:10:45.775Z,99821.25
2022-09-06T01:13:24.907Z,99819.25
2022-09-06T01:16:00.942Z,99808.41
2022-09-06T01:18:41.947Z,99820.03
2022-09-06T01:21:36.420Z,99811.25
2022-09-06T01:24:43.565Z,99813.16
2022-09-06T01:27:46.229Z,99817.81
2022-09-06T01:30:16.436Z,99808.03
2022-09-06T01:32:54.143Z,99819.63
2022-09-06T01:35:29.547Z,99824.72
2022-09-06T01:37:58.584Z,99824.91
2022-09-06T01:40:25.659Z,99815.25
2022-09-06T01:42:55.408Z,99804.59
2022-09-06T01:45:30.404Z,99795.50
2022-09-06T01:48:09.353Z,99785.09
2022-09-06T01:50:52.844Z,99793.44
2022-09-06T01:53:32.656Z,99798.31
2022-09-06T01:56:07.748Z,99799.53
2022-09-06T01:59:01.994Z,99780.47
2022-09-06T02:01:36.257Z,99774.41
2022-09-06T02:04:12.583Z,99781.38
2022-09-06T02:06:43.716Z,99781.38
2022-09-06T02:09:16.101Z,99798.38
2022-09-06T02:11:49.102Z,99814.84
2022-09-06T02:14:23.453Z,99836.31
2022-09-06T02:16:55.805Z,99833.56
2022-09-06T02:19:27.966Z,99824.03
2022-09-06T02:21:57.921Z,99812.44
2022-09-06T02:24:30.743Z,99821.63
2022-09-06T02:26:58.169Z,99818.00
2022-09-06T02:29:26.950Z,99818.00
2022-09-06T02:32:00.453Z,99813.66
2022-09-06T02:34:29.203Z,99810.38
2022-09-06T02:36:56.913Z,99798.06
2022-09-06T02:39:24.546Z,99799.44
2022-09-06T02:41:52.174Z,99794.41
2022-09-06T02:44:18.783Z,99785.06
2022-09-06T02:46:46.918Z,99787.16
2022-09-06T02:49:13.717Z,99775.19
2022-09-06T02:51:40.875Z,99773.66
2022-09-06T02:54:07.885Z,99781.09
2022-09-06T02:56:37.852Z,99781.63
2022-09-06T02:59:04.545Z,99776.59
2022-09-06T03:01:31.442Z,99780.94
2022-09-06T03:04:03.351Z,99777.47
2022-09-06T03:06:30.308Z,99786.28
2022-09-06T03:08:57.132Z,99769.16
2022-09-06T03:11:24.117Z,99764.16
2022-09-06T03:13:51.010Z,99763.28
2022-09-06T03:16:18.107Z,99760.09
2022-09-06T03:18:45.082Z,99751.97
2022-09-06T03:21:13.422Z,99751.47
2022-09-06T03:23:42.409Z,99750.06
2022-09-06T03:26:09.247Z,99743.84
2022-09-06T03:28:36.639Z,99747.13
2022-09-06T03:31:04.051Z,99742.63
2022-09-06T03:33:30.752Z,99741.06
2022-09-06T03:35:59.151Z,99738.50
2022-09-06T03:38:28.441Z,99721.00
2022-09-06T03:40:55.568Z,99728.09
2022-09-06T03:43:24.302Z,99743.69
2022-09-06T03:45:53.789Z,99735.38
2022-09-06T03:48:23.708Z,99734.47
2022-09-06T03:50:52.902Z,99740.91
2022-09-06T03:53:21.899Z,99730.69
2022-09-06T03:55:51.992Z,99738.81
2022-09-06T03:58:21.039Z,99740.53
2022-09-06T04:00:48.787Z,99743.69
2022-09-06T04:03:15.972Z,99742.47
2022-09-06T04:05:46.624Z,99747.66
2022-09-06T04:08:13.239Z,99736.22
2022-09-06T04:10:39.891Z,99729.97
2022-09-06T04:13:15.304Z,99723.06
2022-09-06T04:15:45.662Z,99726.03
2022-09-06T04:18:12.812Z,99725.81
2022-09-06T04:20:40.903Z,99726.69
2022-09-06T04:23:07.784Z,99736.69
2022-09-06T04:25:37.489Z,99739.78
2022-09-06T04:28:04.363Z,99735.63
2022-09-06T04:30:34.958Z,99739.75
2022-09-06T04:33:01.913Z,99740.91
2022-09-06T04:35:28.907Z,99742.09
2022-09-06T04:37:58.614Z,99740.38
2022-09-06T04:40:25.227Z,99741.25
2022-09-06T04:42:51.852Z,99732.09
2022-09-06T04:45:18.984Z,99737.25
2022-09-06T04:47:47.113Z,99740.00
2022-09-06T04:50:14.121Z,99744.84
2022-09-06T04:52:40.742Z,99738.06
2022-09-06T04:55:08.320Z,99742.88
2022-09-06T04:57:38.993Z,99738.69
2022-09-06T05:00:10.987Z,99746.47
2022-09-06T05:02:38.240Z,99748.75
2022-09-06T05:05:09.120Z,99750.84
2022-09-06T05:07:36.316Z,99759.94
2022-09-06T05:10:13.513Z,99759.63
2022-09-06T05:12:44.095Z,99760.66
2022-09-06T05:15:11.352Z,99767.19
2022-09-06T05:17:37.959Z,99770.56
2022-09-06T05:20:08.732Z,99771.94
2022-09-06T05:22:42.815Z,99773.78
2022-09-06T05:25:10.132Z,99768.84
2022-09-06T05:27:36.866Z,99776.59
2022-09-06T05:30:04.040Z,99765.69
2022-09-06T05:32:31.254Z,99766.84
2022-09-06T05:34:58.017Z,99761.03
2022-09-06T05:37:26.993Z,99768.25
2022-09-06T05:39:53.791Z,99772.00
2022-09-06T05:42:20.520Z,99773.53
2022-09-06T05:44:47.230Z,99762.75
2022-09-06T05:47:13.947Z,99770.19
2022-09-06T05:49:41.038Z,99768.41
2022-09-06T05:52:08.709Z,99767.38
2022-09-06T05:54:37.029Z,99770.47
2022-09-06T05:57:04.931Z,99761.22
2022-09-06T05:59:31.920Z,99757.31
2022-09-06T06:01:59.527Z,99759.25
2022-09-06T06:04:26.607Z,99749.94
2022-09-06T06:06:53.332Z,99755.91
2022-09-06T06:09:19.979Z,99754.13
2022-09-06T06:11:47.994Z,99751.00
2022-09-06T06:14:14.668Z,99753.56
2022-09-06T06:16:42.525Z,99759.56
2022-09-06T06:19:09.278Z,99751.97
2022-09-06T06:21:36.943Z,99753.97
2022-09-06T06:24:05.453Z,99748.03
2022-09-06T06:26:34.269Z,99748.06
2022-09-06T06:29:02.674Z,99737.59
2022-09-06T06:31:30.120Z,99740.94
2022-09-06T06:33:57.382Z,99746.34
2022-09-06T06:36:26.878Z,99742.97
2022-09-06T06:38:55.359Z,99745.56
2022-09-06T06:41:23.765Z,99751.34
2022-09-06T06:43:55.753Z,99743.81
2022-09-06T06:46:28.838Z,99740.59
2022-09-06T06:48:55.827Z,99744.88
2022-09-06T06:51:23.784Z,99733.50
2022-09-06T06:53:52.292Z,99739.06
2022-09-06T06:56:26.073Z,99734.06
2022-09-06T06:58:55.256Z,99743.09
2022-09-06T07:01:23.036Z,99737.19
2022-09-06T07:03:52.300Z,99726.56
2022-09-06T07:06:20.017Z,99731.34
2022-09-06T07:08:47.105Z,99736.31
2022-09-06T07:11:16.204Z,99734.31
2022-09-06T07:13:43.610Z,99734.53
2022-09-06T07:16:12.390Z,99729.09
2022-09-06T07:18:40.748Z,99731.63
2022-09-06T07:24:06.456Z,99722.25
2022-09-06T07:26:34.646Z,99733.28
2022-09-06T07:29:05.939Z,99728.31
2022-09-06T07:34:22.239Z,99729.22
2022-09-06T07:36:52.425Z,99729.94
2022-09-06T07:39:19.134Z,99732.31
2022-09-06T07:41:45.773Z,99727.56
2022-09-06T07:44:12.382Z,99728.88
2022-09-06T07:46:39.286Z,99727.69
2022-09-06T07:49:06.213Z,99726.59
2022-09-06T07:54:31.703Z,99721.78
2022-09-06T07:56:58.479Z,99719.97
2022-09-06T07:59:25.143Z,99728.00
2022-09-06T08:01:54.190Z,99719.41
2022-09-06T08:04:21.194Z,99716.22
2022-09-06T08:09:37.967Z,99737.31
2022-09-06T08:12:09.423Z,99745.97
2022-09-06T08:14:36.143Z,99743.41
2022-09-06T08:17:02.999Z,99747.25
2022-09-06T08:19:29.974Z,99745.97
2022-09-06T08:21:57.700Z,99738.94
2022-09-06T08:24:24.375Z,99747.22
2022-09-06T08:26:52.908Z,99736.16
2022-09-06T08:29:19.804Z,99739.13
2022-09-06T08:31:47.440Z,99742.34
2022-09-06T08:37:05.334Z,99749.19
2022-09-06T08:39:33.832Z,99734.84
2022-09-06T08:42:11.804Z,99740.50
2022-09-06T08:44:57.231Z,99730.72
2022-09-06T08:47:26.253Z,99739.84
2022-09-06T08:49:57.840Z,99730.06
2022-09-06T08:53:13.077Z,99736.63
2022-09-06T08:55:42.961Z,99743.19
2022-09-06T08:58:22.956Z,99737.63
2022-09-06T09:00:54.760Z,99737.38
2022-09-06T09:03:26.872Z,99734.25
2022-09-06T09:05:53.855Z,99726.88
2022-09-06T09:08:25.697Z,99720.78
2022-09-06T09:10:58.217Z,99723.50
2022-09-06T09:13:31.728Z,99727.22
2022-09-06T09:15:59.196Z,99727.47
2022-09-06T09:18:29.878Z,99722.81
2022-09-06T09:21:00.867Z,99729.41
2022-09-06T09:23:30.317Z,99723.00
2022-09-06T09:26:02.651Z,99713.75
2022-09-06T09:28:36.209Z,99715.09
2022-09-06T09:31:02.921Z,99718.69
2022-09-06T09:33:34.712Z,99708.38
2022-09-06T09:36:06.256Z,99708.19
2022-09-06T09:38:40.131Z,99708.72
2022-09-06T09:41:08.273Z,99698.97
2022-09-06T09:43:45.091Z,99696.28
2022-09-06T09:46:28.787Z,99698.97
2022-09-06T09:49:08.201Z,99691.13
2022-09-06T09:51:46.123Z,99692.81
2022-09-06T09:54:14.675Z,99689.31
2022-09-06T09:56:47.714Z,99689.41
2022-09-06T09:59:22.303Z,99683.84
2022-09-06T10:01:49.844Z,99683.50
2022-09-06T10:07:13.392Z,99682.91
2022-09-06T10:09:42.586Z,99683.16
2022-09-06T10:12:16.082Z,99674.94
2022-09-06T10:14:46.628Z,99676.94
2022-09-06T10:17:33.068Z,99676.59
2022-09-06T10:20:03.119Z,99672.59
2022-09-06T10:22:35.544Z,99675.75
2022-09-06T10:25:38.774Z,99664.25
2022-09-06T10:28:29.598Z,99665.44
2022-09-06T10:31:07.541Z,99661.09
2022-09-06T10:33:48.794Z,99667.31
2022-09-06T10:36:20.600Z,99670.00
2022-09-06T10:38:54.070Z,99665.81
2022-09-06T10:41:38.005Z,99669.75
2022-09-06T10:44:16.680Z,99674.53
2022-09-06T10:46:45.964Z,99679.03
2022-09-06T10:49:18.671Z,99680.13
2022-09-06T10:51:48.965Z,99677.44
2022-09-06T10:54:21.851Z,99671.75
2022-09-06T10:56:56.139Z,99671.69
2022-09-06T10:59:36.279Z,99662.75
2022-09-06T11:02:16.681Z,99667.94
2022-09-06T11:07:40.473Z,99667.91
2022-09-06T11:10:14.840Z,99678.19
2022-09-06T11:12:49.013Z,99677.47
2022-09-06T11:15:18.150Z,99674.16
2022-09-06T11:17:52.781Z,99669.63
2022-09-06T11:20:27.482Z,99663.63
2022-09-06T11:23:23.614Z,99660.19
2022-09-06T11:26:25.350Z,99659.81
2022-09-06T11:28:55.172Z,99663.41
2022-09-06T11:34:23.047Z,99661.88
2022-09-06T11:36:52.220Z,99666.81
2022-09-06T11:42:40.785Z,99657.84
2022-09-06T11:45:17.099Z,99666.81
2022-09-06T11:47:45.523Z,99674.03
2022-09-06T11:50:23.336Z,99675.00
2022-09-06T11:52:58.781Z,99672.19
2022-09-06T11:55:34.099Z,99666.19
2022-09-06T11:58:04.901Z,99659.09
2022-09-06T12:00:33.006Z,99654.50
2022-09-06T12:06:17.131Z,99643.91
2022-09-06T12:08:44.492Z,99647.13
2022-09-06T12:11:30.588Z,99645.69
2022-09-06T12:14:03.674Z,99647.97
2022-09-06T12:17:09.952Z,99644.56
2022-09-06T12:19:44.674Z,99639.78
2022-09-06T12:22:54.913Z,99635.97
2022-09-06T12:25:52.741Z,99632.81
2022-09-06T12:28:27.499Z,99630.97
2022-09-06T12:30:54.415Z,99631.63
2022-09-06T12:33:26.390Z,99637.31
2022-09-06T12:35:56.572Z,99629.00
2022-09-06T12:38:28.345Z,99627.94
2022-09-06T12:40:55.405Z,99623.03
2022-09-06T12:43:22.324Z,99625.88
2022-09-06T12:45:51.807Z,99626.84
2022-09-06T12:48:29.723Z,99623.69
2022-09-06T12:51:08.760Z,99627.59
2022-09-06T12:53:37.133Z,99623.28
2022-09-06T12:56:06.865Z,99618.88
2022-09-06T12:58:37.845Z,99616.16
2022-09-06T13:01:11.086Z,99613.25
2022-09-06T13:03:43.831Z,99611.94
2022-09-06T13:06:16.943Z,99609.81
2022-09-06T13:08:49.425Z,99619.00
2022-09-06T13:11:23.579Z,99603.78
2022-09-06T13:13:54.610Z,99616.81
2022-09-06T13:16:23.525Z,99608.59
2022-09-06T13:18:50.898Z,99608.75
2022-09-06T13:21:26.354Z,99603.59
2022-09-06T13:23:54.700Z,99601.88
2022-09-06T13:26:35.973Z,99599.66
2022-09-06T13:29:22.109Z,99590.72
2022-09-06T13:31:51.517Z,99591.59
2022-09-06T13:34:26.257Z,99596.59
2022-09-06T13:36:56.060Z,99590.75
2022-09-06T13:39:39.663Z,99587.94
2022-09-06T13:42:08.096Z,99587.31
2022-09-06T13:44:36.624Z,99588.94
2022-09-06T13:47:03.726Z,99588.66
2022-09-06T13:49:32.112Z,99583.53
2022-09-06T13:52:00.467Z,99587.81
2022-09-06T13:54:27.543Z,99588.16
2022-09-06T13:56:56.091Z,99578.38
2022-09-06T13:59:23.452Z,99583.66
2022-09-06T14:01:56.878Z,99576.44
2022-09-06T14:04:24.544Z,99578.78
2022-09-06T14:06:54.765Z,99574.69
2022-09-06T14:09:21.501Z,99571.06
2022-09-06T14:11:48.571Z,99575.56
2022-09-06T14:14:17.465Z,99573.72
2022-09-06T14:16:46.430Z,99577.88
2022-09-06T14:19:14.749Z,99575.66
2022-09-06T14:21:41.662Z,99571.78
2022-09-06T14:24:08.501Z,99566.88
2022-09-06T14:26:36.555Z,99580.34
2022-09-06T14:29:04.029Z,99573.81
2022-09-06T14:31:32.544Z,99577.88
2022-09-06T14:33:59.576Z,99574.69
2022-09-06T14:36:28.500Z,99561.97
2022-09-06T14:38:57.622Z,99559.94
2022-09-06T14:41:27.243Z,99557.81
2022-09-06T14:43:57.620Z,99554.88
2022-09-06T14:46:25.930Z,99550.72
2022-09-06T14:49:01.869Z,99544.75
2022-09-06T14:51:30.016Z,99541.19
2022-09-06T14:53:59.832Z,99543.91
2022-09-06T14:56:33.188Z,99545.59
2022-09-06T14:59:01.867Z,99534.09
2022-09-06T15:01:34.373Z,99536.06
2022-09-06T15:04:07.740Z,99532.88
2022-09-06T15:06:35.494Z,99529.06
2022-09-06T15:09:02.739Z,99528.69
2022-09-06T15:11:32.929Z,99526.38
2022-09-06T15:14:04.689Z,99523.81
2022-09-06T15:16:32.860Z,99516.97
2022-09-06T15:18:59.587Z,99513.91
2022-09-06T15:21:28.528Z,99509.84
2022-09-06T15:23:55.576Z,99508.16
2022-09-06T15:26:22.289Z,99511.28
2022-09-06T15:28:49.756Z,99510.50
2022-09-06T15:31:16.971Z,99501.44
2022-09-06T15:33:44.042Z,99499.72
2022-09-06T15:36:12.641Z,99486.28
2022-09-06T15:38:44.130Z,99488.81
2022-09-06T15:41:12.520Z,99481.84
2022-09-06T15:43:42.026Z,99486.63
2022-09-06T15:46:10.891Z,99489.19
2022-09-06T15:48:41.601Z,99483.19
2022-09-06T15:51:09.034Z,99489.56
2022-09-06T15:53:36.850Z,99484.66
2022-09-06T15:56:06.773Z,99480.22
2022-09-06T15:58:33.720Z,99480.00
2022-09-06T16:01:06.942Z,99474.03
2022-09-06T16:03:37.118Z,99474.78
2022-09-06T16:08:57.121Z,99471.06
2022-09-06T16:11:26.930Z,99472.16
2022-09-06T16:13:54.237Z,99469.97
2022-09-06T16:16:22.013Z,99464.22
2022-09-06T16:18:48.732Z,99468.13
2022-09-06T16:21:18.309Z,99467.41
2022-09-06T16:23:49.451Z,99462.63
2022-09-06T16:26:21.151Z,99457.88
2022-09-06T16:28:54.258Z,99465.09
2022-09-06T16:31:22.389Z,99452.00
2022-09-06T16:33:50.471Z,99458.47
2022-09-06T16:36:18.445Z,99463.00
2022-09-06T16:38:46.334Z,99467.59
2022-09-06T16:41:20.249Z,99467.38
2022-09-06T16:43:50.694Z,99463.59
2022-09-06T16:46:17.442Z,99460.47
2022-09-06T16:48:44.611Z,99461.75
2022-09-06T16:51:14.873Z,99456.22
2022-09-06T16:53:43.485Z,99464.25
2022-09-06T16:56:10.842Z,99459.84
2022-09-06T16:58:37.865Z,99465.69
2022-09-06T17:01:17.555Z,99465.28
2022-09-06T17:03:44.812Z,99457.41
2022-09-06T17:06:13.883Z,99454.34
2022-09-06T17:08:44.974Z,99465.84
2022-09-06T17:11:17.992Z,99461.94
2022-09-06T17:13:48.758Z,99462.31
2022-09-06T17:16:21.943Z,99467.75
2022-09-06T17:18:50.396Z,99461.59
2022-09-06T17:21:17.149Z,99453.94
2022-09-06T17:23:43.819Z,99456.19
2022-09-06T17:26:12.429Z,99464.72
2022-09-06T17:28:44.173Z,99461.91
2022-09-06T17:31:16.797Z,99469.97
2022-09-06T17:33:48.472Z,99469.88
2022-09-06T17:36:17.921Z,99463.63
2022-09-06T17:38:52.989Z,99460.75
2022-09-06T17:41:37.814Z,99457.16
2022-09-06T17:44:06.161Z,99455.69
2022-09-06T17:46:33.238Z,99457.75
2022-09-06T17:49:01.589Z,99450.69
2022-09-06T17:51:28.707Z,99445.63
2022-09-06T17:53:55.398Z,99448.22
2022-09-06T17:56:22.319Z,99445.75
2022-09-06T17:58:56.056Z,99434.09
2022-09-06T18:01:27.974Z,99444.66
2022-09-06T18:03:55.316Z,99428.31
2022-09-06T18:06:28.764Z,99443.56
2022-09-06T18:09:08.353Z,99441.28
2022-09-06T18:11:48.023Z,99442.97
2022-09-06T18:14:19.966Z,99435.09
2022-09-06T18:16:47.484Z,99452.09
2022-09-06T18:19:15.604Z,99440.94
2022-09-06T18:21:43.956Z,99435.13
2022-09-06T18:24:11.076Z,99443.78
2022-09-06T18:26:37.894Z,99449.50
2022-09-06T18:29:05.436Z,99431.88
2022-09-06T18:31:33.622Z,99449.56
2022-09-06T18:34:00.782Z,99448.75
2022-09-06T18:36:32.352Z,99456.09
2022-09-06T18:39:05.952Z,99445.41
2022-09-06T18:41:33.435Z,99448.19
2022-09-06T18:44:01.283Z,99447.53
2022-09-06T18:46:29.680Z,99451.59
2022-09-06T18:48:59.401Z,99447.75
2022-09-06T18:51:27.026Z,99447.91
2022-09-06T18:53:56.058Z,99449.00
2022-09-06T18:56:25.476Z,99450.34
2022-09-06T18:58:54.644Z,99453.34
2022-09-06T19:01:21.987Z,99459.41
2022-09-06T19:03:48.872Z,99443.97
2022-09-06T19:06:17.630Z,99447.41
2022-09-06T19:08:51.241Z,99442.94
2022-09-06T19:11:21.933Z,99425.72
2022-09-06T19:13:53.022Z,99430.25
2022-09-06T19:16:20.762Z,99441.44
2022-09-06T19:18:47.720Z,99441.44
2022-09-06T19:21:16.626Z,99441.00
2022-09-06T19:23:45.175Z,99440.56
2022-09-06T19:26:14.479Z,99425.72
2022-09-06T19:28:42.437Z,99419.06
2022-09-06T19:31:12.525Z,99418.66
2022-09-06T19:33:39.657Z,99417.16
2022-09-06T19:36:11.939Z,99421.91
2022-09-06T19:39:10.308Z,99419.09
2022-09-06T19:41:28.512Z,99414.38
2022-09-06T19:44:04.666Z,99420.59
2022-09-06T19:46:46.183Z,99402.13
2022-09-06T19:49:21.187Z,99395.69
2022-09-06T19:52:16.347Z,99416.75
2022-09-06T19:54:43.322Z,99419.75
2022-09-06T19:57:09.937Z,99420.41
2022-09-06T19:59:36.602Z,99411.38
2022-09-06T20:02:05.146Z,99417.81
2022-09-06T20:04:32.158Z,99410.31
2022-09-06T20:06:58.880Z,99404.94
2022-09-06T20:09:25.794Z,99396.56
2022-09-06T20:11:52.720Z,99402.38
2022-09-06T20:14:19.336Z,99410.09
2022-09-06T20:16:46.162Z,99401.28
2022-09-06T20:19:14.320Z,99401.09
2022-09-06T20:21:41.374Z,99403.00
2022-09-06T20:24:08.173Z,99406.44
2022-09-06T20:26:37.221Z,99392.88
2022-09-06T20:29:06.098Z,99406.84
2022-09-06T20:31:34.185Z,99410.28
2022-09-06T20:34:02.423Z,99423.34
2022-09-06T20:36:31.130Z,99421.44
2022-09-06T20:39:00.896Z,99418.41
2022-09-06T20:41:27.971Z,99417.75
2022-09-06T20:43:56.096Z,99417.75
2022-09-06T20:46:25.022Z,99427.41
2022-09-06T20:48:52.856Z,99426.13
2022-09-06T20:51:23.076Z,99418.41
2022-09-06T20:53:55.460Z,99414.34
2022-09-06T20:56:28.955Z,99415.88
2022-09-06T20:59:01.160Z,99424.19
2022-09-06T21:01:29.564Z,99424.84
2022-09-06T21:03:58.098Z,99422.03
2022-09-06T21:06:27.048Z,99419.66
2022-09-06T21:08:57.087Z,99430.72
2022-09-06T21:11:27.749Z,99433.97
2022-09-06T21:13:56.492Z,99430.28
2022-09-06T21:16:28.384Z,99424.22
2022-09-06T21:18:58.089Z,99416.00
2022-09-06T21:21:31.686Z,99415.50
2022-09-06T21:24:01.657Z,99429.94
2022-09-06T21:26:29.071Z,99429.97
2022-09-06T21:28:56.802Z,99435.28
2022-09-06T21:31:25.169Z,99430.16
2022-09-06T21:33:53.465Z,99435.63
2022-09-06T21:36:21.880Z,99433.06
2022-09-06T21:38:51.706Z,99424.47
2022-09-06T21:41:20.312Z,99432.88
2022-09-06T21:43:47.279Z,99452.88
2022-09-06T21:46:16.159Z,99438.47
2022-09-06T21:48:44.573Z,99438.19
2022-09-06T21:51:13.024Z,99425.94
2022-09-06T21:53:40.557Z,99419.25
2022-09-06T21:56:07.663Z,99410.97
2022-09-06T21:58:36.442Z,99394.25
2022-09-06T22:01:04.345Z,99393.00
2022-09-06T22:03:34.710Z,99392.59
2022-09-06T22:06:08.514Z,99382.47
2022-09-06T22:08:35.341Z,99393.72
2022-09-06T22:11:08.753Z,99365.00
2022-09-06T22:13:36.907Z,99370.28
2022-09-06T22:16:07.871Z,99356.63
2022-09-06T22:18:35.645Z,99349.13
2022-09-06T22:21:03.972Z,99351.50
2022-09-06T22:23:31.789Z,99338.03
2022-09-06T22:26:03.185Z,99336.72
2022-09-06T22:28:30.986Z,99321.44
2022-09-06T22:30:59.520Z,99320.59
2022-09-06T22:33:26.390Z,99302.34
2022-09-06T22:35:54.053Z,99307.38
2022-09-06T22:38:21.081Z,99305.25
2022-09-06T22:40:47.819Z,99303.31
2022-09-06T22:43:15.388Z,99296.34
2022-09-06T22:45:42.103Z,99293.06
2022-09-06T22:48:10.277Z,99295.03
2022-09-06T22:50:36.944Z,99294.19
2022-09-06T22:53:06.841Z,99291.22
2022-09-06T22:55:33.780Z,99286.91
2022-09-06T22:58:01.016Z,99272.16
2022-09-06T23:00:28.618Z,99266.81
2022-09-06T23:02:55.499Z,99268.91
2022-09-06T23:05:23.583Z,99269.34
2022-09-06T23:07:52.749Z,99275.34
2022-09-06T23:10:19.921Z,99293.16
2022-09-06T23:12:47.073Z,99285.09
2022-09-06T23:15:14.212Z,99304.25
2022-09-06T23:17:40.872Z,99308.72
2022-09-06T23:20:08.470Z,99312.56
2022-09-06T23:22:36.544Z,99330.72
2022-09-06T23:25:03.991Z,99447.47
2022-09-06T23:27:30.974Z,99482.56
2022-09-06T23:29:57.645Z,99512.78
2022-09-06T23:32:24.345Z,99495.91
2022-09-06T23:34:51.069Z,99530.44
2022-09-06T23:37:17.712Z,99537.78
2022-09-06T23:39:45.989Z,99539.56
2022-09-06T23:42:12.671Z,99545.75
2022-09-06T23:44:41.054Z,99559.41
2022-09-06T23:47:07.772Z,99566.22
2022-09-06T23:49:34.501Z,99583.34
2022-09-06T23:52:01.711Z,99580.59
2022-09-06T23:54:28.350Z,99578.53
2022-09-06T23:56:56.364Z,99584.78
2022-09-06T23:59:23.063Z,99578.38
